createdAt,value
2022-09-28T00:03:32.073Z,100.00
2022-09-28T00:08:35.992Z,100.00
2022-09-28T00:13:38.866Z,100.00
2022-09-28T00:18:43.602Z,100.00
2022-09-28T00:24:09.659Z,100.00
2022-09-28T00:29:21.118Z,100.00
2022-09-28T00:34:25.363Z,100.00
2022-09-28T00:39:28.436Z,100.00
2022-09-28T00:44:43.871Z,100.00
2022-09-28T00:49:52.045Z,100.00
2022-09-28T00:54:57.149Z,100.00
2022-09-28T01:00:01.590Z,100.00
2022-09-28T01:05:08.277Z,100.00
2022-09-28T01:10:11.563Z,100.00
2022-09-28T01:15:15.591Z,100.00
2022-09-28T01:20:37.484Z,100.00
2022-09-28T01:25:46.781Z,100.00
2022-09-28T01:31:03.287Z,100.00
2022-09-28T01:36:10.870Z,100.00
2022-09-28T01:41:17.444Z,100.00
2022-09-28T01:46:25.580Z,100.00
2022-09-28T01:51:33.425Z,100.00
2022-09-28T01:56:41.302Z,100.00
2022-09-28T02:01:52.880Z,100.00
2022-09-28T02:07:01.175Z,100.00
2022-09-28T02:12:11.912Z,100.00
2022-09-28T02:17:17.179Z,100.00
2022-09-28T02:22:26.115Z,100.00
2022-09-28T02:27:42.548Z,100.00
2022-09-28T02:32:51.060Z,100.00
2022-09-28T02:37:55.994Z,100.00
2022-09-28T02:43:07.740Z,100.00
2022-09-28T02:48:41.308Z,100.00
2022-09-28T02:54:01.820Z,100.00
2022-09-28T02:59:14.588Z,100.00
2022-09-28T03:04:27.734Z,100.00
2022-09-28T03:09:35.911Z,100.00
2022-09-28T03:14:39.057Z,100.00
2022-09-28T03:19:44.148Z,100.00
2022-09-28T03:24:46.949Z,100.00
2022-09-28T03:29:49.966Z,100.00
2022-09-28T03:34:54.526Z,100.00
2022-09-28T03:39:57.320Z,100.00
2022-09-28T03:45:00.132Z,100.00
2022-09-28T03:50:04.590Z,100.00
2022-09-28T03:55:07.975Z,100.00
2022-09-28T04:00:11.916Z,100.00
2022-09-28T04:05:18.991Z,100.00
2022-09-28T04:10:22.067Z,100.00
2022-09-28T04:15:25.415Z,100.00
2022-09-28T04:20:29.956Z,100.00
2022-09-28T04:25:39.627Z,100.00
2022-09-28T04:30:42.799Z,100.00
2022-09-28T04:35:47.095Z,100.00
2022-09-28T04:40:50.512Z,100.00
2022-09-28T04:45:53.413Z,100.00
2022-09-28T04:51:01.677Z,100.00
2022-09-28T04:56:07.011Z,100.00
2022-09-28T05:01:13.581Z,100.00
2022-09-28T05:06:32.989Z,100.00
2022-09-28T05:11:40.650Z,100.00
2022-09-28T05:16:48.614Z,100.00
2022-09-28T05:22:06.113Z,100.00
2022-09-28T05:27:15.830Z,100.00
2022-09-28T05:32:21.885Z,100.00
2022-09-28T05:37:49.387Z,100.00
2022-09-28T05:42:52.530Z,100.00
2022-09-28T05:47:55.400Z,100.00
2022-09-28T05:53:01.681Z,100.00
2022-09-28T05:58:19.346Z,100.00
2022-09-28T06:03:22.540Z,100.00
2022-09-28T06:08:26.839Z,100.00
2022-09-28T06:13:38.614Z,100.00
2022-09-28T06:18:42.347Z,100.00
2022-09-28T06:23:49.651Z,100.00
2022-09-28T06:28:54.215Z,100.00
2022-09-28T06:33:57.334Z,100.00
2022-09-28T06:39:01.570Z,99.02
2022-09-28T06:44:05.004Z,98.62
2022-09-28T06:49:30.293Z,97.44
2022-09-28T06:54:53.120Z,95.44
2022-09-28T07:00:06.085Z,95.14
2022-09-28T07:05:13.527Z,96.94
2022-09-28T07:10:36.027Z,93.33
2022-09-28T07:15:57.370Z,91.80
2022-09-28T07:21:02.805Z,93.00
2022-09-28T07:26:09.381Z,94.11
2022-09-28T07:31:26.269Z,98.84
2022-09-28T07:36:39.101Z,97.54
2022-09-28T07:41:44.256Z,93.63
2022-09-28T07:46:47.372Z,90.03
2022-09-28T07:51:57.553Z,90.52
2022-09-28T07:57:15.239Z,88.75
2022-09-28T08:02:44.694Z,87.86
2022-09-28T08:07:53.041Z,87.67
2022-09-28T08:13:02.032Z,87.73
2022-09-28T08:18:26.280Z,87.00
2022-09-28T08:23:29.153Z,88.03
2022-09-28T08:28:34.288Z,88.78
2022-09-28T08:33:43.120Z,92.78
2022-09-28T08:39:09.345Z,85.84
2022-09-28T08:50:11.107Z,85.63
2022-09-28T08:55:37.841Z,82.58
2022-09-28T09:00:46.818Z,84.75
2022-09-28T09:06:04.442Z,81.17
2022-09-28T09:11:43.803Z,78.17
2022-09-28T09:17:00.381Z,76.89
2022-09-28T09:22:40.672Z,76.65
2022-09-28T09:27:59.715Z,79.23
2022-09-28T09:33:35.794Z,77.14
2022-09-28T09:39:08.105Z,77.49
2022-09-28T09:44:48.802Z,79.12
2022-09-28T09:50:25.253Z,76.75
2022-09-28T09:55:35.215Z,76.94
2022-09-28T10:01:06.830Z,77.71
2022-09-28T10:06:40.212Z,77.45
2022-09-28T10:11:47.710Z,77.92
2022-09-28T10:16:53.418Z,76.98
2022-09-28T10:22:24.212Z,77.97
2022-09-28T10:27:32.681Z,74.86
2022-09-28T10:32:41.323Z,74.64
2022-09-28T10:37:52.253Z,75.96
2022-09-28T10:43:22.876Z,76.04
2022-09-28T10:48:29.463Z,77.58
2022-09-28T10:53:36.963Z,74.15
2022-09-28T10:58:42.116Z,74.14
2022-09-28T11:03:53.304Z,73.22
2022-09-28T11:08:59.564Z,70.11
2022-09-28T11:14:04.686Z,70.62
2022-09-28T11:19:29.432Z,71.33
2022-09-28T11:24:33.996Z,71.86
2022-09-28T11:29:42.745Z,73.87
2022-09-28T11:35:17.461Z,72.90
2022-09-28T11:40:31.480Z,73.92
2022-09-28T11:45:47.694Z,74.64
2022-09-28T11:50:53.297Z,74.57
2022-09-28T11:56:08.665Z,72.61
2022-09-28T12:01:23.115Z,71.71
2022-09-28T12:06:53.329Z,71.93
2022-09-28T12:12:05.198Z,73.02
2022-09-28T12:17:26.577Z,72.08
2022-09-28T12:22:36.375Z,71.78
2022-09-28T12:27:47.256Z,74.09
2022-09-28T12:32:56.351Z,73.73
2022-09-28T12:38:18.222Z,73.20
2022-09-28T12:43:57.593Z,72.66
2022-09-28T12:54:51.664Z,74.63
2022-09-28T13:00:03.717Z,73.74
2022-09-28T13:05:25.273Z,74.58
2022-09-28T13:10:34.712Z,71.88
2022-09-28T13:15:44.980Z,67.94
2022-09-28T13:21:04.836Z,69.63
2022-09-28T13:26:17.847Z,69.49
2022-09-28T13:31:29.151Z,69.02
2022-09-28T13:36:39.293Z,71.49
2022-09-28T13:41:50.574Z,71.46
2022-09-28T13:47:20.525Z,72.56
2022-09-28T13:52:35.677Z,71.88
2022-09-28T13:57:46.316Z,72.94
2022-09-28T14:02:58.778Z,75.09
2022-09-28T14:08:30.997Z,75.86
2022-09-28T14:14:01.339Z,75.13
2022-09-28T14:19:09.148Z,74.86
2022-09-28T14:24:30.254Z,74.33
2022-09-28T14:29:36.486Z,73.69
2022-09-28T14:34:44.031Z,74.54
2022-09-28T14:40:05.776Z,73.36
2022-09-28T14:45:35.820Z,73.37
2022-09-28T14:50:40.391Z,70.43
2022-09-28T14:55:51.138Z,71.10
2022-09-28T15:01:01.597Z,72.89
2022-09-28T15:06:06.016Z,72.50
2022-09-28T15:11:16.683Z,72.99
2022-09-28T15:16:24.809Z,74.14
2022-09-28T15:21:36.354Z,74.43
2022-09-28T15:26:39.066Z,74.20
2022-09-28T15:31:41.927Z,74.30
2022-09-28T15:36:47.109Z,75.15
2022-09-28T15:41:51.637Z,77.20
2022-09-28T15:47:09.451Z,77.89
2022-09-28T15:52:36.430Z,78.36
2022-09-28T15:57:41.089Z,79.31
2022-09-28T16:03:00.291Z,79.48
2022-09-28T16:08:06.010Z,79.46
2022-09-28T16:13:21.080Z,80.63
2022-09-28T16:18:25.474Z,81.19
2022-09-28T16:23:33.244Z,82.47
2022-09-28T16:28:55.879Z,84.25
2022-09-28T16:34:02.242Z,85.04
2022-09-28T16:39:06.341Z,85.40
2022-09-28T16:44:17.150Z,86.47
2022-09-28T16:49:20.035Z,87.52
2022-09-28T16:54:43.115Z,88.56
2022-09-28T16:59:45.875Z,90.95
2022-09-28T17:04:48.664Z,91.82
2022-09-28T17:09:52.818Z,93.09
2022-09-28T17:14:56.442Z,92.76
2022-09-28T17:19:59.387Z,93.79
2022-09-28T17:25:03.572Z,94.73
2022-09-28T17:30:07.735Z,95.74
2022-09-28T17:35:24.275Z,97.19
2022-09-28T17:40:31.470Z,97.73
2022-09-28T17:45:39.461Z,98.94
2022-09-28T17:50:46.669Z,99.44
2022-09-28T17:55:51.530Z,100.00
2022-09-28T18:00:54.456Z,100.00
2022-09-28T18:06:03.333Z,100.00
2022-09-28T18:11:07.691Z,100.00
2022-09-28T18:16:11.003Z,100.00
2022-09-28T18:21:17.898Z,100.00
2022-09-28T18:26:22.244Z,100.00
2022-09-28T18:31:25.494Z,100.00
2022-09-28T18:36:33.234Z,100.00
2022-09-28T18:41:37.743Z,100.00
2022-09-28T18:46:42.947Z,100.00
2022-09-28T18:51:45.937Z,100.00
2022-09-28T18:56:51.257Z,100.00
2022-09-28T19:01:54.367Z,100.00
2022-09-28T19:06:57.218Z,100.00
2022-09-28T19:12:01.953Z,100.00
2022-09-28T19:17:04.899Z,100.00
2022-09-28T19:22:07.646Z,100.00
2022-09-28T19:27:12.169Z,100.00
2022-09-28T19:32:15.354Z,100.00
2022-09-28T19:37:18.173Z,100.00
2022-09-28T19:42:22.553Z,100.00
2022-09-28T19:47:25.618Z,100.00
2022-09-28T19:52:28.515Z,100.00
2022-09-28T19:57:34.211Z,100.00
2022-09-28T20:02:37.142Z,100.00
2022-09-28T20:07:40.053Z,100.00
2022-09-28T20:12:44.437Z,100.00
2022-09-28T20:17:47.542Z,100.00
2022-09-28T20:22:50.454Z,100.00
2022-09-28T20:27:55.139Z,100.00
2022-09-28T20:32:58.102Z,100.00
2022-09-28T20:38:07.882Z,100.00
2022-09-28T20:43:12.348Z,100.00
2022-09-28T20:48:15.292Z,100.00
2022-09-28T20:53:18.121Z,100.00
2022-09-28T20:58:22.264Z,100.00
2022-09-28T21:03:25.356Z,100.00
2022-09-28T21:08:28.189Z,100.00
2022-09-28T21:13:32.332Z,100.00
2022-09-28T21:18:35.149Z,100.00
2022-09-28T21:23:38.100Z,100.00
2022-09-28T21:28:44.620Z,100.00
2022-09-28T21:33:47.573Z,100.00
2022-09-28T21:38:50.423Z,100.00
2022-09-28T21:43:54.798Z,100.00
2022-09-28T21:48:57.573Z,100.00
2022-09-28T21:54:00.379Z,100.00
2022-09-28T21:59:04.595Z,100.00
2022-09-28T22:04:07.353Z,100.00
2022-09-28T22:09:10.166Z,100.00
2022-09-28T22:14:14.607Z,100.00
2022-09-28T22:19:17.640Z,100.00
2022-09-28T22:24:20.604Z,100.00
2022-09-28T22:29:24.918Z,100.00
2022-09-28T22:34:30.638Z,100.00
2022-09-28T22:39:37.472Z,100.00
2022-09-28T22:44:42.442Z,100.00
2022-09-28T22:49:45.173Z,100.00
2022-09-28T22:54:51.136Z,100.00
2022-09-28T22:59:55.258Z,100.00
2022-09-28T23:04:57.973Z,100.00
2022-09-28T23:10:00.699Z,100.00
2022-09-28T23:15:05.728Z,100.00
2022-09-28T23:20:09.569Z,100.00
2022-09-28T23:25:12.280Z,100.00
2022-09-28T23:30:18.180Z,100.00
2022-09-28T23:35:21.163Z,100.00
2022-09-28T23:40:24.034Z,100.00
2022-09-28T23:45:28.202Z,100.00
2022-09-28T23:50:31.190Z,100.00
2022-09-28T23:55:35.042Z,100.00
